• Join FlightAware (Why Join?)
  • Login
  • US Flag 
12:24AM EST


 

Airport Tracker/Info


-or-


 

Live Flight TrackerFlight Track Log ✈ RJA267 ✈ 18-Jul-2013 ✈ OJAI / AMM - KDTW

Flight Track Log - Related Links

Times and Time Zones

All times are in EDT time to prevent confusion due to time zone crossing. See the RJA267 flight status page for this flight to view local times or setup timezone preferences in your user account.

Time Position Orientation Groundspeed Altitude Reporting Facility
EDT Latitude Longitude Course Direction KTS MPH feet Rate Location/Type
07:31PM 31.7120 35.9580 260° West 163 188 4,100  Level FlightAware
07:31PM 31.7100 35.9480 257° West 166 191 4,400 720 Climbing FlightAware
07:31PM 31.7070 35.9200 263° West 196 226 4,600 600 Climbing FlightAware
07:32PM 31.7020 35.8880 260° West 229 264 5,000 720 Climbing FlightAware
07:32PM 31.7010 35.8760 264° West 240 276 5,100 120 Climbing FlightAware
07:32PM 31.6970 35.8480 260° West 240 276 5,100 1,440 Level FlightAware
07:35PM 31.8792 35.6657 320° Northwest  Level Estimated
07:36PM 31.9680 35.5765 320° Northwest  Level Estimated
07:36PM 31.8220 35.5190 320° Northwest 345 397 11,100  Level FlightAware
07:37PM 31.8490 35.4240 289° West 350 403 11,500 240 Climbing FlightAware
07:38PM 31.8640 35.3690 288° West 350 403 11,500  Level FlightAware
07:38PM 31.8800 35.3130 289° West 350 403 11,500 1,800 Level FlightAware
07:41PM 32.0718 35.1189 319° Northwest  Level Estimated
07:42PM 32.1602 35.0290 319° Northwest  Level Estimated
07:42PM 32.0310 34.8890 319° Northwest 19,600  Level FlightAware
07:43PM 32.0620 34.8030 293° West 399 459 20,200 900 Climbing FlightAware
07:43PM 32.0630 34.8010 301° West 403 464 20,800 1,020 Climbing FlightAware
07:44PM 32.1190 34.6450 293° West 408 470 21,600 1,140 Climbing FlightAware
07:45PM 32.1500 34.5580 293° West 410 472 22,400 720 Climbing FlightAware
07:45PM 32.1750 34.4880 293° West 410 472 22,600 600 Climbing FlightAware
07:46PM 32.2030 34.4080 292° West 417 480 23,200 420 Climbing FlightAware
07:47PM 32.2320 34.3210 292° West 417 480 23,200  Level FlightAware
07:47PM 32.2540 34.2570 292° West 417 480 23,200  Level FlightAware
07:48PM 32.2840 34.1700 292° West 417 480 23,200 1,920 Level FlightAware
07:49PM 32.3330 34.0400 294° West 438 504 25,900 2,520 Climbing FlightAware
07:49PM 32.3730 33.9260 293° West 436 502 26,800 960 Climbing FlightAware
07:50PM 32.4070 33.8290 293° West 439 505 27,400 780 Climbing FlightAware
07:51PM 32.4380 33.7420 293° West 438 504 27,900 720 Climbing FlightAware
07:51PM 32.4670 33.6550 292° West 440 506 28,400 540 Climbing FlightAware
07:52PM 32.5030 33.5520 293° West 448 516 28,700 600 Climbing FlightAware
07:53PM 32.5350 33.4610 293° West 448 516 29,300 780 Climbing FlightAware
07:54PM 32.5700 33.3580 292° West 447 514 29,900 660 Climbing FlightAware
07:54PM 32.6010 33.2700 293° West 449 517 30,300 420 Climbing FlightAware
07:55PM 32.6370 33.1630 292° West 457 526 30,500 300 Climbing FlightAware
07:56PM 32.6680 33.0730 292° West 460 529 30,800 480 Climbing FlightAware
07:57PM 32.7080 32.9540 292° West 458 527 31,300 420 Climbing FlightAware
07:57PM 32.7300 32.8880 292° West 461 531 31,400 360 Climbing FlightAware
07:58PM 32.7820 32.7370 292° West 469 540 31,900 480 Climbing FlightAware
07:59PM 32.8120 32.6460 291° West 466 536 32,200 480 Climbing FlightAware
08:00PM 32.8630 32.5180 295° West 468 539 32,700 540 Climbing FlightAware
08:00PM 32.9200 32.4230 306° West 476 548 33,100 360 Climbing FlightAware
08:01PM 32.9850 32.3410 313° West 482 555 33,300 300 Climbing FlightAware
08:02PM 33.0670 32.2410 314° West 485 558 33,600 300 Climbing FlightAware
08:03PM 33.1360 32.1570 314° West 488 562 33,800 420 Climbing FlightAware
08:03PM 33.1990 32.0800 314° West 486 559 34,200 480 Climbing FlightAware
08:04PM 33.2530 32.0140 314° West 487 560 34,400 180 Climbing FlightAware
08:05PM 33.3100 31.9430 314° West 488 562 34,500 480 Climbing FlightAware
08:05PM 33.3860 31.8510 315° West 485 558 35,100 780 Climbing FlightAware
08:06PM 33.4440 31.7800 314° West 481 554 35,500 660 Climbing FlightAware
08:07PM 33.5070 31.7020 314° West 469 540 36,000 300 Climbing FlightAware
08:07PM 33.5750 31.6180 314° West 465 535 36,000  Level FlightAware
08:08PM 33.6360 31.5420 314° West 466 536 36,000  Level FlightAware
08:09PM 33.6970 31.4670 314° West 465 535 36,000  Level FlightAware
08:09PM 33.7660 31.3800 314° West 466 536 36,000  Level FlightAware
08:10PM 33.8280 31.3040 314° West 466 536 36,000  Level FlightAware
08:11PM 33.8980 31.2140 313° West 466 536 36,000  Level FlightAware
08:12PM 33.9590 31.1390 314° West 469 540 36,000  Level FlightAware
08:12PM 34.0310 31.0490 314° West 471 542 36,000  Level FlightAware
08:13PM 34.0790 30.9880 314° West 472 543 36,000  Level FlightAware
08:14PM 34.1660 30.8790 314° West 480 552 36,000  Level FlightAware
08:15PM 34.2370 30.7910 314° West 480 552 36,000  Level FlightAware
08:15PM 34.3000 30.7140 315° West 473 544 36,000  Level FlightAware
08:16PM 34.3610 30.6380 314° West 471 542 36,000  Level FlightAware
08:17PM 34.4240 30.5600 314° West 469 540 36,000  Level FlightAware
08:17PM 34.4920 30.4750 314° West 467 537 36,000  Level FlightAware
08:18PM 34.5400 30.4130 313° West 467 537 36,000  Level FlightAware
08:19PM 34.5850 30.3540 313° West 467 537 36,000  Level FlightAware
08:19PM 34.6690 30.2530 315° West 36,000  Level FlightAware
08:20PM 34.7480 30.1520 314° West 469 540 36,000  Level FlightAware
08:21PM 34.8090 30.0730 313° West 469 540 36,000  Level FlightAware
08:22PM 34.8830 29.9830 315° West 471 542 36,000  Level FlightAware
08:22PM 34.9470 29.9020 314° West 469 540 36,000  Level FlightAware
08:23PM 35.0260 29.8020 314° West 471 542 36,000  Level FlightAware
08:24PM 35.0790 29.7340 314° West 468 539 36,000  Level FlightAware
08:25PM 35.1580 29.6330 314° West 468 539 36,000  Level FlightAware
08:25PM 35.2030 29.5740 313° West 468 539 36,000  Level FlightAware
08:26PM 35.2780 29.4790 314° West 466 536 36,000  Level FlightAware
08:27PM 35.3480 29.3890 314° West 465 535 36,000  Level FlightAware
08:27PM 35.3960 29.3270 314° West 465 535 36,000  Level FlightAware
08:28PM 35.4670 29.2350 313° West 464 534 36,000  Level FlightAware
08:29PM 35.5250 29.1600 314° West 458 527 36,000  Level FlightAware
08:29PM 35.5750 29.0950 313° West 465 535 36,000  Level FlightAware
08:30PM 35.6430 29.0070 314° West 466 536 36,000  Level FlightAware
08:31PM 35.7110 28.9170 313° West 465 535 36,000  Level FlightAware
08:32PM 35.7780 28.8300 314° West 466 536 36,000  Level FlightAware
08:32PM 35.8310 28.7590 313° West 465 535 36,000  Level FlightAware
08:33PM 35.8910 28.6810 314° West 465 535 36,000  Level FlightAware
08:34PM 35.9490 28.6050 313° West 465 535 36,000  Level FlightAware
08:34PM 36.0020 28.5340 313° West 464 534 36,000  Level FlightAware
08:35PM 36.0660 28.4490 313° West 463 533 36,000  Level FlightAware
08:36PM 36.1250 28.3710 313° West 464 534 36,000  Level FlightAware
08:36PM 36.1900 28.2840 313° West 467 537 36,000  Level FlightAware
08:37PM 36.2480 28.2060 313° West 469 540 36,000  Level FlightAware
08:38PM 36.3090 28.1240 313° West 467 537 36,000  Level FlightAware
08:38PM 36.3740 28.0440 315° West 469 540 36,000  Level FlightAware
08:39PM 36.4310 27.9780 317° Northwest 470 541 36,000  Level FlightAware
08:40PM 36.5170 27.8760 316° Northwest 471 542 36,000  Level FlightAware
08:41PM 36.6010 27.7790 317° Northwest 475 547 36,000  Level FlightAware
08:41PM 36.6630 27.7080 317° Northwest 475 547 36,000  Level FlightAware
08:42PM 36.7340 27.6250 317° Northwest 476 548 36,000  Level FlightAware
08:43PM 36.7960 27.5530 317° Northwest 476 548 36,000  Level FlightAware
08:44PM 36.8700 27.4660 317° Northwest 475 547 36,000  Level FlightAware
08:44PM 36.9500 27.3720 317° Northwest 471 542 36,000  Level FlightAware
08:45PM 37.0230 27.2860 317° Northwest 469 540 36,000  Level FlightAware
08:46PM 37.0870 27.2090 316° Northwest 470 541 36,000  Level FlightAware
08:46PM 37.1450 27.1420 317° Northwest 470 541 36,000  Level FlightAware
08:47PM 37.2130 27.0610 317° Northwest 471 542 36,000  Level FlightAware
08:48PM 37.2760 26.9860 317° Northwest 466 536 36,000  Level FlightAware
08:48PM 37.3330 26.9170 316° Northwest 464 534 36,000  Level FlightAware
08:49PM 37.4000 26.8370 317° Northwest 464 534 36,000  Level FlightAware
08:50PM 37.4670 26.7660 320° Northwest 466 536 36,000  Level FlightAware
08:50PM 37.5290 26.6980 319° Northwest 467 537 36,000  Level FlightAware
08:51PM 37.6020 26.6190 319° Northwest 466 536 36,000  Level FlightAware
08:52PM 37.6670 26.5490 320° Northwest 465 535 36,000  Level FlightAware
08:52PM 37.7240 26.4860 319° Northwest 466 536 36,000  Level FlightAware
08:53PM 37.7900 26.4150 320° Northwest 465 535 36,000  Level FlightAware
08:54PM 37.8550 26.3430 319° Northwest 464 534 36,000  Level FlightAware
08:54PM 37.9270 26.2650 319° Northwest 462 532 36,000  Level FlightAware
08:55PM 38.0180 26.1650 319° Northwest 466 536 36,000  Level FlightAware
08:56PM 38.0890 26.0870 319° Northwest 469 540 36,000  Level FlightAware
08:57PM 38.1480 26.0210 319° Northwest 471 542 36,000  Level FlightAware
08:57PM 38.2150 25.9500 320° Northwest 474 545 36,000  Level FlightAware
08:58PM 38.2840 25.8850 324° Northwest 464 534 36,000  Level FlightAware
08:59PM 38.3560 25.8160 323° Northwest 466 536 36,000  Level FlightAware
08:59PM 38.4120 25.7620 323° Northwest 457 526 36,000  Level FlightAware
09:00PM 38.4860 25.6910 323° Northwest 456 525 36,000  Level FlightAware
09:01PM 38.5380 25.6390 322° Northwest 456 525 36,000  Level FlightAware
09:01PM 38.6310 25.5500 323° Northwest 451 519 36,000  Level FlightAware
09:02PM 38.6950 25.4870 322° Northwest 450 518 36,000  Level FlightAware
09:03PM 38.7680 25.4170 323° Northwest 451 519 36,000  Level FlightAware
09:03PM 38.8270 25.3590 323° Northwest 445 512 36,000  Level FlightAware
09:04PM 38.9000 25.2870 322° Northwest 452 520 36,000  Level FlightAware
09:05PM 38.9630 25.2260 323° Northwest 446 513 36,000  Level FlightAware
09:06PM 39.0910 25.0970 322° Northwest 447 514 36,000  Level FlightAware
09:07PM 39.1900 25.0010 323° Northwest 452 520 36,000  Level FlightAware
09:08PM 39.2400 24.9500 322° Northwest 452 520 36,000  Level FlightAware
09:09PM 39.3440 24.8480 323° Northwest 457 526 36,000  Level FlightAware
09:09PM 39.4160 24.7750 322° Northwest 457 526 36,000  Level FlightAware
09:10PM 39.4920 24.7000 323° Northwest 459 528 36,000  Level FlightAware
09:11PM 39.5740 24.6180 322° Northwest 461 531 36,000  Level FlightAware
09:12PM 39.6530 24.5390 322° Northwest 458 527 36,000  Level FlightAware
09:13PM 39.7370 24.4540 322° Northwest 453 521 36,000  Level FlightAware
09:13PM 39.8030 24.3870 322° Northwest 437 503 36,000  Level FlightAware
09:14PM 39.8720 24.3170 322° Northwest 427 491 36,000  Level FlightAware
09:15PM 39.9350 24.2520 322° Northwest 425 489 36,000  Level FlightAware
09:15PM 39.9900 24.1970 323° Northwest 427 491 36,000  Level FlightAware
09:16PM 40.0510 24.1340 322° Northwest 430 495 36,000  Level FlightAware
09:17PM 40.1220 24.0610 322° Northwest 430 495 36,000  Level FlightAware
09:17PM 40.1690 24.0130 322° Northwest 430 495 36,000  Level FlightAware
09:18PM 40.2450 23.9340 322° Northwest 440 506 36,000  Level FlightAware
09:19PM 40.3090 23.8690 322° Northwest 439 505 36,000  Level FlightAware
09:19PM 40.3770 23.7990 322° Northwest 440 506 36,000  Level FlightAware
09:20PM 40.4510 23.7220 322° Northwest 439 505 36,000  Level FlightAware
09:21PM 40.5140 23.6560 321° Northwest 436 502 36,000  Level FlightAware
09:21PM 40.5840 23.5830 322° Northwest 439 505 36,000  Level FlightAware
09:22PM 40.6350 23.5290 321° Northwest 441 507 36,000  Level FlightAware
09:23PM 40.7040 23.4570 322° Northwest 441 507 36,000  Level FlightAware
09:23PM 40.7680 23.3890 321° Northwest 441 507 36,000  Level FlightAware
09:24PM 40.8260 23.3290 322° Northwest 441 507 36,000  Level FlightAware
09:25PM 40.8960 23.2550 321° Northwest 439 505 36,000  Level FlightAware
09:25PM 40.9600 23.1870 321° Northwest 440 506 36,000  Level FlightAware
09:26PM 41.0180 23.1250 321° Northwest 441 507 36,000  Level FlightAware
09:27PM 41.0880 23.0510 321° Northwest 442 509 36,000  Level FlightAware
09:27PM 41.1510 22.9830 321° Northwest 442 509 36,000  Level FlightAware
09:28PM 41.2150 22.9150 321° Northwest 443 510 36,000  Level FlightAware
09:29PM 41.2890 22.8360 321° Northwest 442 509 36,000  Level FlightAware
09:29PM 41.3610 22.7890 334° Northwest 437 503 36,000  Level FlightAware
09:30PM 41.4430 22.7420 337° Northwest 437 503 36,000  Level FlightAware
09:31PM 41.5190 22.6990 337° Northwest 438 504 36,000  Level FlightAware
09:32PM 41.6010 22.6520 337° Northwest 439 505 36,000  Level FlightAware
09:32PM 41.6660 22.6150 337° Northwest 438 504 36,000  Level FlightAware
09:33PM 41.7490 22.5670 337° Northwest 439 505 36,000  Level FlightAware
09:34PM 41.8350 22.5180 337° Northwest 440 506 36,000  Level FlightAware
09:34PM 41.9060 22.4770 337° Northwest 441 507 36,000  Level FlightAware
09:35PM 41.9750 22.4370 337° Northwest 442 509 36,000  Level FlightAware
09:36PM 42.0550 22.3900 336° Northwest 443 510 36,000  Level FlightAware
09:36PM 42.1320 22.3460 337° Northwest 444 511 36,000  Level FlightAware
09:37PM 42.2120 22.2990 336° Northwest 445 512 36,000  Level FlightAware
09:38PM 42.2950 22.2510 337° Northwest 445 512 36,000  Level FlightAware
09:38PM 42.3730 22.2180 343° North 445 512 36,000  Level FlightAware
09:39PM 42.4570 22.1850 344° North 444 511 36,000  Level FlightAware
09:40PM 42.5300 22.1560 344° North 444 511 36,000  Level FlightAware
09:40PM 42.6020 22.1270 343° North 444 511 36,000  Level FlightAware
09:41PM 42.6870 22.0840 340° North 443 510 36,000  Level FlightAware
09:42PM 42.7560 22.0250 328° Northwest 442 509 36,000  Level FlightAware
09:42PM 42.8150 21.9480 316° Northwest 442 509 36,000  Level FlightAware
09:43PM 42.8710 21.8670 313° West 442 509 36,000  Level FlightAware
09:44PM 42.9300 21.7820 313° West 442 509 36,000  Level FlightAware
09:44PM 42.9890 21.6960 313° West 442 509 36,000  Level FlightAware
09:45PM 43.0490 21.6090 313° West 443 510 36,000  Level FlightAware
09:46PM 43.1110 21.5180 313° West 445 512 36,000  Level FlightAware
09:47PM 43.1660 21.4380 313° West 445 512 36,000  Level FlightAware
09:47PM 43.2160 21.3630 312° West 446 513 36,000  Level FlightAware
09:48PM 43.2730 21.2800 313° West 446 513 36,000  Level FlightAware
09:49PM 43.3350 21.1870 313° West 445 512 36,000  Level FlightAware
09:49PM 43.3960 21.0970 313° West 445 512 36,000  Level FlightAware
09:50PM 43.4470 21.0220 313° West 443 510 36,000  Level FlightAware
09:51PM 43.5130 20.9230 313° West 441 507 36,000  Level FlightAware
09:51PM 43.5690 20.8400 313° West 442 509 36,000  Level FlightAware
09:52PM 43.6300 20.7480 313° West 443 510 36,000  Level FlightAware
09:53PM 43.6840 20.6670 313° West 443 510 36,000  Level FlightAware
09:53PM 43.7400 20.5820 312° West 443 510 36,000  Level FlightAware
09:54PM 43.8010 20.4890 312° West 445 512 36,000  Level FlightAware
09:55PM 43.8570 20.4040 312° West 445 512 36,000  Level FlightAware
09:56PM 43.9140 20.3160 312° West 446 513 36,000  Level FlightAware
09:56PM 43.9760 20.2220 313° West 446 513 36,000  Level FlightAware
09:57PM 44.0320 20.1370 313° West 445 512 36,000  Level FlightAware
09:58PM 44.0940 20.0400 312° West 445 512 36,000  Level FlightAware
09:58PM 44.1490 19.9550 312° West 446 513 36,000  Level FlightAware
09:59PM 44.1920 19.8890 312° West 446 513 36,000  Level FlightAware
10:00PM 44.2540 19.7930 312° West 446 513 36,000  Level FlightAware
10:00PM 44.3140 19.6980 311° West 447 514 36,000  Level FlightAware
10:01PM 44.3620 19.6240 312° West 447 514 36,000  Level FlightAware
10:02PM 44.4190 19.5350 312° West 447 514 36,000  Level FlightAware
10:02PM 44.4780 19.4420 312° West 446 513 36,000  Level FlightAware
10:03PM 44.5340 19.3530 311° West 447 514 36,000  Level FlightAware
10:04PM 44.5950 19.2570 312° West 447 514 36,000  Level FlightAware
10:04PM 44.6490 19.1710 311° West 447 514 36,000  Level FlightAware
10:05PM 44.7030 19.0850 311° West 447 514 36,000  Level FlightAware
10:06PM 44.7660 18.9840 311° West 446 513 36,000  Level FlightAware
10:07PM 44.8180 18.9020 312° West 445 512 36,000  Level FlightAware
10:07PM 44.8780 18.8040 311° West 445 512 36,000  Level FlightAware
10:08PM 44.9310 18.7190 311° West 446 513 36,000  Level FlightAware
10:09PM 44.9900 18.6220 311° West 448 516 36,000  Level FlightAware
10:09PM 45.0500 18.5260 312° West 449 517 36,000  Level FlightAware
10:10PM 45.0990 18.4450 311° West 450 518 36,000  Level FlightAware
10:11PM 45.1530 18.3570 311° West 449 517 36,000  Level FlightAware
10:12PM 45.2090 18.2650 311° West 449 517 36,000  Level FlightAware
10:12PM 45.2760 18.1560 311° West 451 519 36,000  Level FlightAware
10:13PM 45.3430 18.0450 311° West 451 519 36,000  Level FlightAware
10:14PM 45.3990 17.9520 311° West 453 521 36,000  Level FlightAware
10:14PM 45.4530 17.8620 311° West 449 517 36,000  Level FlightAware
10:15PM 45.5020 17.7800 310° West 454 522 36,000  Level FlightAware
10:16PM 45.5640 17.6770 311° West 454 522 36,000  Level FlightAware
10:16PM 45.6120 17.5960 310° West 454 522 36,000  Level FlightAware
10:17PM 45.6720 17.4950 310° West 454 522 36,000  Level FlightAware
10:18PM 45.7270 17.4010 310° West 454 522 36,000  Level FlightAware
10:18PM 45.7880 17.2980 310° West 455 524 36,000  Level FlightAware
10:19PM 45.8480 17.1950 310° West 456 525 36,000  Level FlightAware
10:20PM 45.8960 17.1130 310° West 455 524 36,000  Level FlightAware
10:20PM 45.9490 17.0220 310° West 455 524 36,000  Level FlightAware
10:21PM 46.0030 16.9290 310° West 458 527 36,000  Level FlightAware
10:22PM 46.0630 16.8250 310° West 458 527 36,000  Level FlightAware
10:22PM 46.1120 16.7400 310° West 458 527 36,000  Level FlightAware
10:23PM 46.1640 16.6500 310° West 458 527 36,000  Level FlightAware
10:24PM 46.2420 16.5210 311° West 462 532 36,000  Level FlightAware
10:25PM 46.3180 16.4290 320° Northwest 465 535 36,000  Level FlightAware
10:25PM 46.3820 16.3510 320° Northwest 465 535 36,000  Level FlightAware
10:26PM 46.4490 16.2720 321° Northwest 459 528 36,000  Level FlightAware
10:27PM 46.5170 16.1930 321° Northwest 459 528 36,000  Level FlightAware
10:27PM 46.5840 16.1140 321° Northwest 458 527 36,000  Level FlightAware
10:28PM 46.6760 16.0050 321° Northwest 456 525 36,000  Level FlightAware
10:29PM 46.7290 15.9400 320° Northwest 456 525 36,000  Level FlightAware
10:30PM 46.8000 15.8580 322° Northwest 457 526 36,000  Level FlightAware
10:30PM 46.8690 15.7750 321° Northwest 463 533 36,000  Level FlightAware
10:31PM 46.9480 15.6800 321° Northwest 463 533 36,000  Level FlightAware
10:32PM 47.0120 15.6040 321° Northwest 462 532 36,000  Level FlightAware
10:32PM 47.0810 15.5200 320° Northwest 463 533 36,000  Level FlightAware
10:33PM 47.1530 15.4330 321° Northwest 464 534 36,000  Level FlightAware
10:34PM 47.2320 15.3370 320° Northwest 465 535 36,000  Level FlightAware
10:35PM 47.3040 15.2500 321° Northwest 465 535 36,000  Level FlightAware
10:35PM 47.3710 15.1670 320° Northwest 464 534 36,000  Level FlightAware
10:36PM 47.4310 15.0940 321° Northwest 464 534 36,000  Level FlightAware
10:37PM 47.5020 15.0060 320° Northwest 464 534 36,000  Level FlightAware
10:37PM 47.5630 14.9310 320° Northwest 464 534 36,000  Level FlightAware
10:38PM 47.6370 14.8390 320° Northwest 464 534 36,000  Level FlightAware
10:39PM 47.7040 14.7560 320° Northwest 464 534 36,000  Level FlightAware
10:39PM 47.7770 14.6640 320° Northwest 465 535 36,000  Level FlightAware
10:40PM 47.8440 14.5810 320° Northwest 464 534 36,000  Level FlightAware
10:41PM 47.9170 14.4880 320° Northwest 464 534 36,000  Level FlightAware
10:42PM 47.9830 14.4050 320° Northwest 463 533 36,000  Level FlightAware
10:42PM 48.0470 14.3240 320° Northwest 463 533 36,000  Level FlightAware
10:43PM 48.1210 14.2300 320° Northwest 463 533 36,000  Level FlightAware
10:44PM 48.1860 14.1470 320° Northwest 461 531 36,000  Level FlightAware
10:44PM 48.2570 14.0570 320° Northwest 454 522 36,000  Level FlightAware
10:45PM 48.3160 13.9800 319° Northwest 454 522 36,000  Level FlightAware
10:46PM 48.3870 13.8890 320° Northwest 455 524 36,000  Level FlightAware
10:46PM 48.4540 13.8020 319° Northwest 456 525 36,000  Level FlightAware
10:47PM 48.5260 13.7080 319° Northwest 455 524 36,000  Level FlightAware
10:48PM 48.6060 13.6030 319° Northwest 457 526 36,000 240 Level FlightAware
10:49PM 48.6800 13.5060 319° Northwest 456 525 36,400 540 Climbing FlightAware
10:49PM 48.7440 13.4220 319° Northwest 458 527 36,800 660 Climbing FlightAware
10:50PM 48.8010 13.3480 319° Northwest 454 522 37,300 720 Climbing FlightAware
10:51PM 48.8610 13.2680 319° Northwest 452 520 37,700 540 Climbing FlightAware
10:51PM 48.9200 13.1810 316° Northwest 456 525 38,000 180 Climbing FlightAware
10:52PM 48.9850 13.0610 310° West 454 522 38,000  Level FlightAware
10:53PM 49.0520 12.9400 310° West 455 524 38,000  Level FlightAware
10:54PM 49.1200 12.8130 309° West 455 524 38,000  Level FlightAware
10:54PM 49.1740 12.7150 310° West 456 525 38,000  Level FlightAware
10:55PM 49.2370 12.5980 310° West 456 525 38,000  Level FlightAware
10:56PM 49.2980 12.4850 310° West 458 527 38,000  Level FlightAware
10:57PM 49.3540 12.3790 309° West 458 527 38,000  Level FlightAware
10:57PM 49.3970 12.2970 309° West 454 522 38,000  Level FlightAware
10:58PM 49.4510 12.1810 306° West 453 521 38,000  Level FlightAware
10:59PM 49.5020 12.0710 306° West 451 519 38,000  Level FlightAware
10:59PM 49.5500 11.9660 305° West 451 519 38,000  Level FlightAware
11:00PM 49.6030 11.8520 306° West 451 519 38,000  Level FlightAware
11:01PM 49.6540 11.7400 305° West 451 519 38,000  Level FlightAware
11:01PM 49.7070 11.6240 305° West 450 518 38,000  Level FlightAware
11:02PM 49.7450 11.5390 305° West 450 518 38,000  Level FlightAware
11:03PM 49.7970 11.4240 305° West 451 519 38,000  Level FlightAware
11:03PM 49.8400 11.3290 305° West 451 519 38,000  Level FlightAware
11:04PM 49.8900 11.2170 305° West 454 522 38,000  Level FlightAware
11:05PM 49.9390 11.1090 305° West 457 526 38,000  Level FlightAware
11:05PM 49.9870 11.0000 304° West 458 527 38,000  Level FlightAware
11:06PM 50.0380 10.8850 305° West 459 528 38,000  Level FlightAware
11:07PM 50.0860 10.7760 304° West 459 528 38,000  Level FlightAware
11:07PM 50.1400 10.6530 304° West 457 526 38,000  Level FlightAware
11:08PM 50.1870 10.5470 305° West 455 524 38,000  Level FlightAware
11:09PM 50.2350 10.4370 304° West 454 522 38,000  Level FlightAware
11:09PM 50.2770 10.3380 304° West 454 522 38,000  Level FlightAware
11:10PM 50.3290 10.2190 304° West 453 521 38,000  Level FlightAware
11:11PM 50.4010 10.0510 304° West 453 521 38,000  Level FlightAware
11:12PM 50.4490 9.9400 304° West 454 522 38,000  Level FlightAware
11:13PM 50.4960 9.8300 304° West 456 525 38,000  Level FlightAware
11:13PM 50.5490 9.7050 304° West 458 527 38,000  Level FlightAware
11:14PM 50.6000 9.5840 304° West 459 528 38,000  Level FlightAware
11:15PM 50.6490 9.4660 303° West 460 529 38,000  Level FlightAware
11:15PM 50.6960 9.3540 304° West 461 531 38,000  Level FlightAware
11:16PM 50.7380 9.2530 303° West 462 532 38,000  Level FlightAware
11:17PM 50.7900 9.1290 304° West 462 532 38,000  Level FlightAware
11:17PM 50.8360 9.0170 303° West 464 534 38,000  Level FlightAware
11:18PM 50.8790 8.9130 303° West 464 534 38,000  Level FlightAware
11:19PM 50.9250 8.8000 303° West 464 534 38,000  Level FlightAware
11:19PM 50.9770 8.6730 303° West 462 532 38,000  Level FlightAware
11:20PM 51.0190 8.5700 303° West 463 533 38,000  Level FlightAware
11:21PM 51.0630 8.4610 303° West 464 534 38,000  Level FlightAware
11:21PM 51.1110 8.3410 303° West 464 534 38,000  Level FlightAware
11:22PM 51.1580 8.2230 302° West 460 529 38,000  Level FlightAware
11:23PM 51.2070 8.1000 302° West 463 533 38,000  Level FlightAware
11:23PM 51.2600 7.9680 303° West 464 534 38,000  Level FlightAware
11:24PM 51.3060 7.8500 302° West 464 534 38,000  Level FlightAware
11:25PM 51.3520 7.7340 302° West 464 534 38,000  Level FlightAware
11:25PM 51.3910 7.6350 302° West 463 533 38,000  Level FlightAware
11:26PM 51.4410 7.5060 302° West 464 534 38,000  Level FlightAware
11:27PM 51.4860 7.3900 302° West 465 535 38,000  Level FlightAware
11:28PM 51.5370 7.2580 302° West 467 537 38,000  Level FlightAware
11:28PM 51.5820 7.1420 302° West 466 536 38,000  Level FlightAware
11:29PM 51.6320 7.0090 301° West 466 536 38,000  Level FlightAware
11:30PM 51.6760 6.8930 301° West 468 539 38,000  Level FlightAware
11:30PM 51.7250 6.7640 302° West 467 537 38,000  Level FlightAware
11:31PM 51.7710 6.6410 301° West 465 535 38,000  Level FlightAware
11:32PM 51.8190 6.5150 302° West 464 534 38,000  Level FlightAware
11:32PM 51.8680 6.3950 304° West 463 533 38,000  Level FlightAware
11:33PM 51.9180 6.2670 302° West 464 534 38,000  Level FlightAware
11:34PM 51.9660 6.1460 303° West 465 535 38,000  Level FlightAware
11:35PM 52.0170 6.0150 302° West 468 539 38,000  Level FlightAware
11:35PM 52.0630 5.8970 302° West 470 541 38,000  Level FlightAware
11:36PM 52.1150 5.7650 303° West 470 541 38,000  Level FlightAware
11:36PM 52.1453 5.6713 303° West 468 539 38,000  Level FlightAware UK
11:37PM 52.1600 5.6450 303° West 469 540 38,000  Level FlightAware
11:37PM 52.2110 5.5130 303° West 470 541 38,000  Level FlightAware
11:37PM 52.2167 5.4937 303° West 468 539 38,000  Level FlightAware UK
11:38PM 52.2509 5.4032 303° West 470 541 38,000  Level FlightAware UK
11:38PM 52.2580 5.3920 303° West 472 543 38,000  Level FlightAware
11:39PM 52.3080 5.2590 302° West 471 542 38,000  Level FlightAware
11:39PM 52.3540 5.1370 302° West 470 541 38,000  Level FlightAware
11:39PM 52.3556 5.1320 302° West 472 543 38,000  Level FlightAware UK
11:40PM 52.3887 5.0400 302° West 474 545 38,000  Level FlightAware UK
11:40PM 52.3990 5.0170 302° West 469 540 38,000  Level FlightAware
11:41PM 52.4430 4.9010 302° West 467 537 38,000  Level FlightAware
11:41PM 52.4935 4.7698 302° West 466 536 38,000  Level FlightAware UK
11:42PM 52.4940 4.7650 302° West 466 536 38,000  Level FlightAware
11:42PM 52.5331 4.6617 302° West 468 539 38,000  Level FlightAware UK
11:42PM 52.5410 4.6360 302° West 467 537 38,000  Level FlightAware
11:43PM 52.5830 4.5220 302° West 466 536 38,000  Level FlightAware
11:43PM 52.5994 4.4795 302° West 466 536 38,000  Level FlightAware UK
11:44PM 52.6330 4.3885 302° West 464 534 38,000  Level FlightAware UK
11:44PM 52.6390 4.3700 302° West 468 539 38,000  Level FlightAware
11:44PM 52.6750 4.2720 301° West 470 541 38,000  Level FlightAware
11:45PM 52.7230 4.1400 301° West 471 542 38,000  Level FlightAware
11:46PM 52.7670 4.0170 301° West 471 542 38,000  Level FlightAware
11:46PM 52.7736 4.0018 301° West 470 541 38,000  Level FlightAware UK
11:46PM 52.8071 3.9091 301° West 466 536 38,000  Level FlightAware UK
11:46PM 52.8070 3.9080 301° West 470 541 38,000  Level FlightAware
11:47PM 52.8580 3.7650 301° West 471 542 38,000  Level FlightAware
11:48PM 52.9020 3.6420 301° West 471 542 38,000  Level FlightAware
11:48PM 52.9462 3.5181 301° West 468 539 38,000  Level FlightAware UK
11:48PM 52.9500 3.5050 301° West 469 540 38,000  Level FlightAware
11:49PM 52.9850 3.4075 301° West 464 534 38,000  Level FlightAware UK
11:49PM 52.9940 3.3810 301° West 468 539 38,000  Level FlightAware
11:50PM 53.0330 3.2590 298° West 471 542 38,000  Level FlightAware
11:50PM 53.0760 3.1130 298° West 472 543 38,000  Level FlightAware
11:50PM 53.0805 3.0992 298° West 468 539 38,000  Level FlightAware UK
11:51PM 53.1152 2.9829 298° West 468 539 38,000  Level FlightAware UK
11:51PM 53.1210 2.9630 298° West 470 541 38,000  Level FlightAware
11:52PM 53.1600 2.8280 296° West 469 540 38,000  Level FlightAware
11:53PM 53.2040 2.6800 296° West 468 539 38,000  Level FlightAware
11:53PM 53.2360 2.5670 295° West 466 536 38,000  Level FlightAware
11:54PM 53.2614 2.4808 296° West 466 536 38,000  Level FlightAware ADS-B
11:54PM 53.3005 2.3453 296° West 468 539 38,000  Level FlightAware ADS-B
11:55PM 53.3287 2.2469 296° West 469 540 38,000  Level FlightAware ADS-B
11:55PM 53.3572 2.1469 296° West 469 540 38,000  Level FlightAware ADS-B
11:56PM 53.3853 2.0483 296° West 469 540 38,000  Level FlightAware ADS-B
11:56PM 53.4134 1.9486 295° West 469 540 38,000  Level FlightAware ADS-B
11:57PM 53.4413 1.8495 295° West 469 540 38,000  Level FlightAware ADS-B
11:57PM 53.4696 1.7488 295° West 468 539 38,000  Level FlightAware ADS-B
11:58PM 53.4979 1.6474 295° West 468 539 38,000  Level FlightAware ADS-B
11:58PM 53.5287 1.5367 295° West 469 540 38,000  Level FlightAware ADS-B
11:59PM 53.5799 1.3516 295° West 471 542 38,000  Level FlightAware ADS-B
12:00AM 53.6115 1.2375 295° West 462 532 38,000  Level FlightAware UK
12:00AM 53.6153 1.2226 295° West 471 542 38,000  Level FlightAware ADS-B
12:01AM 53.6442 1.1174 295° West 462 532 38,000  Level FlightAware UK
12:01AM 53.6620 1.0500 295° West 473 544 38,000  Level FlightAware
12:01AM 53.6753 1.0025 295° West 474 545 38,000  Level FlightAware ADS-B
12:02AM 53.7068 0.8857 295° West 474 545 38,000  Level FlightAware ADS-B
12:02AM 53.7348 0.7819 295° West 474 545 38,000  Level FlightAware ADS-B
12:03AM 53.7636 0.6753 295° West 464 534 38,000  Level FlightAware UK
12:03AM 53.7624 0.6790 295° West 474 545 38,000  Level FlightAware ADS-B
12:03AM 53.7895 0.5777 294° West 474 545 38,000  Level FlightAware ADS-B
12:04AM 53.8169 0.4743 294° West 474 545 38,000  Level FlightAware ADS-B
12:04AM 53.8438 0.3726 294° West 473 544 38,000  Level FlightAware ADS-B
12:05AM 53.8727 0.2701 296° West 472 543 38,000  Level FlightAware ADS-B
12:05AM 53.9020 0.1689 296° West 472 543 38,000  Level FlightAware ADS-B
12:06AM 53.9319 0.0651 296° West 473 544 38,000  Level FlightAware ADS-B
12:06AM 53.9610 -0.0370 296° West 473 544 38,000  Level FlightAware ADS-B
12:07AM 53.9980 -0.1669 296° West 464 534 38,000  Level FlightAware UK
12:07AM 54.0040 -0.1889 296° West 472 543 38,000  Level FlightAware ADS-B
12:08AM 54.0323 -0.2896 296° West 471 542 38,000  Level FlightAware ADS-B
12:08AM 54.0797 -0.4586 296° West 469 540 38,000  Level FlightAware ADS-B
12:09AM 54.1077 -0.5589 295° West 470 541 38,000  Level FlightAware ADS-B
12:09AM 54.1359 -0.6607 295° West 471 542 38,000  Level FlightAware ADS-B
12:10AM 54.1636 -0.7611 295° West 470 541 38,000  Level FlightAware ADS-B
12:10AM 54.1918 -0.8636 295° West 468 539 38,000  Level FlightAware ADS-B
12:11AM 54.2195 -0.9649 295° West 468 539 38,000  Level FlightAware ADS-B
12:11AM 54.2481 -1.0697 295° West 468 539 38,000  Level FlightAware ADS-B
12:12AM 54.2827 -1.1971 295° West 468 539 38,000  Level FlightAware ADS-B
12:13AM 54.3284 -1.3666 295° West 462 532 38,000  Level FlightAware UK
12:13AM 54.3270 -1.3600 295° West 467 537 38,000  Level FlightAware
12:13AM 54.3603 -1.4863 295° West 462 532 38,000  Level FlightAware UK
12:14AM 54.3620 -1.4920 295° West 467 537 38,000  Level FlightAware
12:14AM 54.3940 -1.6120 295° West 467 537 38,000  Level FlightAware
12:15AM 54.4270 -1.7360 295° West 467 537 38,000  Level FlightAware
12:16AM 54.4690 -1.8980 294° West 468 539 38,000  Level FlightAware
12:16AM 54.5050 -2.0330 294° West 468 539 38,000  Level FlightAware
12:16AM 54.5095 -2.0520 294° West 460 529 38,000  Level FlightAware UK
12:17AM 54.5361 -2.1538 294° West 462 532 38,000  Level FlightAware UK
12:17AM 54.5440 -2.1850 294° West 468 539 38,000  Level FlightAware
12:18AM 54.5800 -2.3230 294° West 467 537 38,000  Level FlightAware
12:18AM 54.6195 -2.4786 294° West 446 513 38,000 120 Level FlightAware UK
12:18AM 54.6180 -2.4730 294° West 450 518 38,100  Climbing FlightAware
12:19AM 54.6500 -2.6000 294° West 445 512 38,000 -120 Descending FlightAware
12:20AM 54.6936 -2.7715 294° West 444 511 38,000  Level FlightAware UK
12:20AM 54.7182 -2.8696 294° West 444 511 38,000  Level FlightAware UK
12:21AM 54.7476 -2.9867 294° West 446 513 38,000  Level FlightAware UK
12:22AM 54.7769 -3.1043 293° West 444 511 38,000  Level FlightAware UK
12:22AM 54.8012 -3.2022 293° West 442 509 38,000  Level FlightAware UK
12:23AM 54.8302 -3.3196 293° West 442 509 38,000  Level FlightAware UK
12:23AM 54.8542 -3.4176 293° West 444 511 38,000  Level FlightAware UK
12:24AM 54.8782 -3.5157 293° West 446 513 38,000  Level FlightAware UK
12:24AM 54.9067 -3.6330 293° West 446 513 38,000  Level FlightAware UK
12:25AM 54.9305 -3.7314 293° West 446 513 38,000  Level FlightAware UK
12:25AM 54.9542 -3.8297 293° West 446 513 38,000  Level FlightAware UK
12:26AM 54.9775 -3.9278 293° West 444 511 38,000  Level FlightAware UK
12:26AM 55.0054 -4.0445 293° West 444 511 38,000  Level FlightAware UK
12:27AM 54.9560 -3.8620 293° West 445 512 38,000  Level FlightAware
12:27AM 55.0520 -4.2409 293° West 446 513 38,000  Level FlightAware UK
12:28AM 55.0550 -4.2510 292° West 437 503 38,000  Level FlightAware
12:28AM 55.0794 -4.3576 292° West 446 513 38,000  Level FlightAware UK
12:28AM 55.1024 -4.4558 292° West 444 511 38,000  Level FlightAware UK
12:28AM 55.0880 -4.3940 292° West 436 502 38,000  Level FlightAware
12:29AM 55.1251 -4.5530 292° West 444 511 38,000  Level FlightAware UK
12:29AM 55.1460 -4.6440 292° West 433 498 38,000  Level FlightAware
12:30AM 55.1518 -4.6688 292° West 442 509 38,000  Level FlightAware UK
12:30AM 55.1742 -4.7661 292° West 446 513 38,000  Level FlightAware UK
12:30AM 55.1800 -4.7900 292° West 438 504 38,000  Level FlightAware
12:31AM 55.2110 -4.9230 292° West 442 509 38,000  Level FlightAware
12:32AM 55.2400 -5.0530 292° West 442 509 38,000  Level FlightAware
12:32AM 55.2424 -5.0642 292° West 450 518 38,000  Level FlightAware UK
12:32AM 55.2670 -5.1720 292° West 441 507 38,000  Level FlightAware
12:32AM 55.2693 -5.1831 292° West 448 516 38,000  Level FlightAware UK
12:33AM 55.2919 -5.2837 292° West 450 518 38,000  Level FlightAware UK
12:33AM 55.3000 -5.3180 292° West 443 510 38,000  Level FlightAware
12:34AM 55.3310 -5.4560 292° West 442 509 38,000  Level FlightAware
12:34AM 55.3560 -5.5700 291° West 442 509 38,000  Level FlightAware
12:35AM 55.3860 -5.7060 291° West 442 509 38,000  Level FlightAware
12:35AM 55.3940 -5.7435 291° West 452 520 38,000  Level FlightAware UK
12:35AM 55.4162 -5.8446 291° West 448 516 38,000  Level FlightAware UK
12:36AM 55.4190 -5.8560 291° West 443 510 38,000  Level FlightAware
12:36AM 55.4424 -5.9648 291° West 450 518 38,000  Level FlightAware UK
12:36AM 55.4480 -5.9910 291° West 444 511 38,000  Level FlightAware
12:37AM 55.4770 -6.1250 291° West 445 512 38,000  Level FlightAware
12:38AM 55.5100 -6.2790 291° West 445 512 38,000  Level FlightAware
12:38AM 55.5122 -6.2887 291° West 452 520 38,000  Level FlightAware UK
12:38AM 55.5382 -6.4112 291° West 452 520 38,000  Level FlightAware UK
12:38AM 55.5430 -6.4320 291° West 446 513 38,000  Level FlightAware
12:39AM 55.5640 -6.5340 290° West 448 516 38,000  Level FlightAware
12:40AM 55.5970 -6.6880 291° West 448 516 38,000  Level FlightAware
12:40AM 55.6260 -6.8260 291° West 449 517 38,000  Level FlightAware
12:40AM 55.6332 -6.8630 291° West 454 522 38,000  Level FlightAware UK
12:41AM 55.6546 -6.9666 291° West 454 522 38,000  Level FlightAware UK
12:41AM 55.6580 -6.9810 291° West 449 517 38,000  Level FlightAware
12:42AM 55.6860 -7.1180 290° West 449 517 38,000  Level FlightAware
12:42AM 55.7180 -7.2740 290° West 449 517 38,000  Level FlightAware
12:43AM 55.7226 -7.2974 290° West 452 520 38,000  Level FlightAware UK
12:43AM 55.7437 -7.4013 290° West 454 522 38,000  Level FlightAware UK
12:43AM 55.7450 -7.4100 290° West 450 518 38,000  Level FlightAware
12:44AM 55.7740 -7.5520 290° West 450 518 38,000  Level FlightAware
12:44AM 55.7950 -7.6590 289° West 448 516 38,000  Level FlightAware
12:45AM 55.8190 -7.7770 290° West 446 513 38,000  Level FlightAware
12:46AM 55.8500 -7.9330 290° West 445 512 38,000  Level FlightAware
12:46AM 55.8513 -7.9409 290° West 452 520 38,000  Level FlightAware UK
12:46AM 55.8716 -8.0445 290° West 454 522 38,000  Level FlightAware UK
12:46AM 55.8760 -8.0670 290° West 446 513 38,000  Level FlightAware
12:47AM 55.9040 -8.2090 289° West 446 513 38,000  Level FlightAware
12:48AM 55.9310 -8.3480 289° West 445 512 38,000  Level FlightAware
12:48AM 55.9361 -8.3768 289° West 458 527 38,000  Level FlightAware UK
12:48AM 55.9563 -8.4806 289° West 456 525 38,000  Level FlightAware UK
12:48AM 55.9600 -8.5030 289° West 443 510 38,000  Level FlightAware
12:49AM 55.9870 -8.6410 289° West 442 509 38,000  Level FlightAware
12:50AM 56.0130 -8.7810 289° West 443 510 38,000  Level FlightAware
12:50AM 56.0150 -8.7914 289° West 452 520 38,000  Level FlightAware UK
12:50AM 56.0346 -8.8952 289° West 452 520 38,000  Level FlightAware UK
12:50AM 56.0420 -8.9360 289° West 444 511 38,000  Level FlightAware
12:51AM 56.0710 -9.0930 288° West 445 512 38,000  Level FlightAware
12:52AM 56.0970 -9.2320 289° West 446 513 38,000  Level FlightAware
12:53AM 56.1250 -9.3840 288° West 447 514 38,000  Level FlightAware
12:53AM 56.1450 -9.4920 288° West 444 511 38,000  Level FlightAware
12:54AM 56.1730 -9.6490 288° West 443 510 38,000  Level FlightAware
12:55AM 56.1940 -9.7650 288° West 442 509 38,000  Level FlightAware
12:55AM 56.2210 -9.9190 288° West 443 510 38,000 120 Level FlightAware
12:56AM 56.2460 -10.0620 288° West 447 514 38,200 420 Climbing FlightAware
12:57AM 56.2700 -10.1980 288° West 449 517 38,600 480 Climbing FlightAware
12:57AM 56.2960 -10.3490 287° West 452 520 38,900 420 Climbing FlightAware
12:58AM 56.3210 -10.4930 287° West 455 524 39,200 480 Climbing FlightAware
12:59AM 56.3460 -10.6360 288° West 456 525 39,600 480 Climbing FlightAware
12:59AM 56.3740 -10.8000 287° West 458 527 39,900 240 Climbing FlightAware
01:00AM 56.3990 -10.9530 287° West 461 531 40,000 60 Climbing FlightAware
01:01AM 56.4240 -11.0990 287° West 459 528 40,000  Level FlightAware
01:01AM 56.4510 -11.2660 286° West 453 521 40,000  Level FlightAware
01:02AM 56.4720 -11.3920 287° West 453 521 40,000  Level FlightAware
01:03AM 56.4960 -11.5400 286° West 454 522 40,000  Level FlightAware
01:03AM 56.5190 -11.6820 286° West 454 522 40,000  Level FlightAware
01:04AM 56.5450 -11.8480 286° West 450 518 40,000  Level FlightAware
01:05AM 56.5630 -11.9660 286° West 450 518 40,000  Level FlightAware
01:06AM 56.6000 -12.1970 286° West 450 518 40,000  Level FlightAware
01:06AM 56.6260 -12.3630 286° West 451 519 40,000  Level FlightAware
01:07AM 56.6450 -12.4900 285° West 452 520 40,000  Level FlightAware
01:08AM 56.6650 -12.6310 285° West 452 520 40,000  Level FlightAware
01:08AM 56.6800 -12.7440 284° West 452 520 40,000  Level FlightAware
01:09AM 56.6960 -12.8600 284° West 452 520 40,000  Level FlightAware
01:10AM 56.7120 -12.9730 285° West 452 520 40,000  Level FlightAware
01:10AM 56.7320 -13.1240 284° West 452 520 40,000  Level FlightAware
01:11AM 56.7510 -13.2620 284° West 452 520 40,000  Level FlightAware
01:11AM 56.7610 -13.3380 284° West 452 520 40,000  Level FlightAware
01:12AM 56.7820 -13.4890 284° West 452 520 40,000  Level FlightAware
01:13AM 56.7970 -13.6020 284° West 452 520 40,000  Level FlightAware
01:14AM 56.8230 -13.7910 284° West 452 520 40,000  Level FlightAware
01:14AM 56.8390 -13.9050 284° West 452 520 40,000  Level FlightAware
01:15AM 56.8600 -14.0590 284° West 452 520 40,000  Level FlightAware
01:16AM 56.8750 -14.1730 284° West 452 520 40,000  Level FlightAware
01:17AM 56.8960 -14.3250 284° West 452 520 40,000  Level FlightAware
01:19AM 56.9398 -14.7135 282° West  Level Estimated
01:20AM 56.9634 -14.9278 282° West  Level Estimated
01:21AM 56.9866 -15.1423 281° West  Level Estimated
01:22AM 57.0098 -15.3602 281° West  Level Estimated
01:23AM 57.0326 -15.5783 281° West  Level Estimated
01:24AM 57.0551 -15.7968 281° West  Level Estimated
01:25AM 57.0771 -16.0154 281° West  Level Estimated
01:26AM 57.0988 -16.2343 280° West  Level Estimated
01:27AM 57.1201 -16.4535 280° West  Level Estimated
01:28AM 57.1410 -16.6730 280° West  Level Estimated
01:29AM 57.1615 -16.8926 280° West  Level Estimated
01:30AM 57.1816 -17.1125 280° West  Level Estimated
01:31AM 57.2014 -17.3327 279° West  Level Estimated
01:32AM 57.2208 -17.5531 279° West  Level Estimated
01:33AM 57.2397 -17.7737 279° West  Level Estimated
01:34AM 57.2583 -17.9945 279° West  Level Estimated
01:35AM 57.2765 -18.2156 279° West  Level Estimated
01:36AM 57.2943 -18.4369 279° West  Level Estimated
01:37AM 57.3118 -18.6584 278° West  Level Estimated
01:38AM 57.3288 -18.8801 278° West  Level Estimated
01:39AM 57.3455 -19.1020 278° West  Level Estimated
01:40AM 57.3617 -19.3241 278° West  Level Estimated
01:41AM 57.3776 -19.5464 278° West  Level Estimated
01:42AM 57.3931 -19.7688 277° West  Level Estimated
01:42AM 58.0000 -20.0000 285° West 444 511 40,000  Level ETMS Enhanced Traffic Management System
01:43AM 57.4081 -19.9915 277° West  Level Estimated
01:44AM 57.4228 -20.2144 277° West  Level Estimated
01:45AM 57.4371 -20.4374 277° West  Level Estimated
01:46AM 57.4510 -20.6606 277° West  Level Estimated
01:47AM 57.4645 -20.8840 277° West  Level Estimated
01:48AM 58.1856 -21.3584 284° West 444 511 40,000  Level FlightAware Transoceanic
01:49AM 58.2152 -21.5861 284° West 444 511 40,000  Level FlightAware Transoceanic
01:50AM 58.2443 -21.8142 284° West 444 511 40,000  Level FlightAware Transoceanic
01:51AM 58.2730 -22.0427 283° West 444 511 40,000  Level FlightAware Transoceanic
01:52AM 58.3013 -22.2716 283° West 444 511 40,000  Level FlightAware Transoceanic
01:53AM 58.3292 -22.5008 283° West 444 511 40,000  Level FlightAware Transoceanic
01:54AM 58.3567 -22.7304 283° West 444 511 40,000  Level FlightAware Transoceanic
01:55AM 58.3838 -22.9604 283° West 444 511 40,000  Level FlightAware Transoceanic
01:56AM 58.4105 -23.1907 282° West 444 511 40,000  Level FlightAware Transoceanic
01:57AM 58.4367 -23.4213 282° West 444 511 40,000  Level FlightAware Transoceanic
01:58AM 58.4626 -23.6523 282° West 444 511 40,000  Level FlightAware Transoceanic
01:59AM 58.4880 -23.8836 282° West 444 511 40,000  Level FlightAware Transoceanic
02:00AM 58.5130 -24.1153 282° West 444 511 40,000  Level FlightAware Transoceanic
02:01AM 58.5376 -24.3473 281° West 444 511 40,000  Level FlightAware Transoceanic
02:02AM 58.5617 -24.5796 281° West 444 511 40,000  Level FlightAware Transoceanic
02:03AM 58.5855 -24.8122 281° West 444 511 40,000  Level FlightAware Transoceanic
02:04AM 58.6088 -25.0451 281° West 444 511 40,000  Level FlightAware Transoceanic
02:05AM 58.6317 -25.2784 281° West 444 511 40,000  Level FlightAware Transoceanic
02:06AM 58.6542 -25.5119 280° West 444 511 40,000  Level FlightAware Transoceanic
02:07AM 58.6763 -25.7458 280° West 444 511 40,000  Level FlightAware Transoceanic
02:08AM 58.6979 -25.9799 280° West 444 511 40,000  Level FlightAware Transoceanic
02:09AM 58.7191 -26.2143 280° West 444 511 40,000  Level FlightAware Transoceanic
02:10AM 58.7399 -26.4490 280° West 444 511 40,000  Level FlightAware Transoceanic
02:11AM 58.7603 -26.6840 279° West 444 511 40,000  Level FlightAware Transoceanic
02:12AM 58.7802 -26.9193 279° West 444 511 40,000  Level FlightAware Transoceanic
02:13AM 58.7997 -27.1548 279° West 444 511 40,000  Level FlightAware Transoceanic
02:14AM 58.8188 -27.3906 279° West 444 511 40,000  Level FlightAware Transoceanic
02:15AM 58.8374 -27.6266 279° West 444 511 40,000  Level FlightAware Transoceanic
02:16AM 58.8556 -27.8629 278° West 444 511 40,000  Level FlightAware Transoceanic
02:17AM 58.8734 -28.0995 278° West 444 511 40,000  Level FlightAware Transoceanic
02:18AM 58.8908 -28.3363 278° West 444 511 40,000  Level FlightAware Transoceanic
02:19AM 58.9077 -28.5733 278° West 444 511 40,000  Level FlightAware Transoceanic
02:20AM 58.9241 -28.8105 278° West 444 511 40,000  Level FlightAware Transoceanic
02:21AM 58.9402 -29.0480 277° West 444 511 40,000  Level FlightAware Transoceanic
02:22AM 58.9558 -29.2857 277° West 444 511 40,000  Level FlightAware Transoceanic
02:23AM 58.9710 -29.5236 277° West 444 511 40,000  Level FlightAware Transoceanic
02:24AM 58.9857 -29.7617 277° West 444 511 40,000  Level FlightAware Transoceanic
02:25AM 58.9997 -29.9948 277° West  Level FlightAware Approximate
02:26AM 59.0134 -30.2281 277° West  Level FlightAware Approximate
02:27AM 59.0084 -30.2238 274° West  Level FlightAware Approximate
02:28AM 59.0169 -30.4581 274° West  Level FlightAware Approximate
02:29AM 59.0249 -30.6924 274° West  Level FlightAware Approximate
02:30AM 59.0325 -30.9269 274° West  Level FlightAware Approximate
02:31AM 59.0396 -31.1615 273° West  Level FlightAware Approximate
02:32AM 59.0463 -31.3962 273° West  Level FlightAware Approximate
02:33AM 59.0527 -31.6310 273° West  Level FlightAware Approximate
02:34AM 59.0585 -31.8659 273° West  Level FlightAware Approximate
02:35AM 59.0640 -32.1008 273° West  Level FlightAware Approximate
02:36AM 59.0690 -32.3358 272° West  Level FlightAware Approximate
02:37AM 59.0736 -32.5709 272° West  Level FlightAware Approximate
02:38AM 59.0778 -32.8060 272° West  Level FlightAware Approximate
02:39AM 59.0816 -33.0412 272° West  Level FlightAware Approximate
02:40AM 59.0849 -33.2765 272° West  Level FlightAware Approximate
02:41AM 59.0878 -33.5117 271° West  Level FlightAware Approximate
02:42AM 59.0903 -33.7471 271° West  Level FlightAware Approximate
02:43AM 59.0924 -33.9824 271° West  Level FlightAware Approximate
02:44AM 59.0940 -34.2178 271° West  Level FlightAware Approximate
02:45AM 59.0952 -34.4532 271° West  Level FlightAware Approximate
02:46AM 59.0960 -34.6886 270° West  Level FlightAware Approximate
02:47AM 59.0963 -34.9240 270° West  Level FlightAware Approximate
02:48AM 59.0962 -35.1594 270° West  Level FlightAware Approximate
02:49AM 59.0957 -35.3949 270° West  Level FlightAware Approximate
02:50AM 59.0948 -35.6302 270° West  Level FlightAware Approximate
02:51AM 59.0935 -35.8656 269° West  Level FlightAware Approximate
02:52AM 59.0917 -36.1010 269° West  Level FlightAware Approximate
02:53AM 59.0895 -36.3363 269° West  Level FlightAware Approximate
02:54AM 59.0868 -36.5717 269° West  Level FlightAware Approximate
02:55AM 59.0838 -36.8069 269° West  Level FlightAware Approximate
02:56AM 59.0803 -37.0421 268° West  Level FlightAware Approximate
02:57AM 59.0764 -37.2773 268° West  Level FlightAware Approximate
02:58AM 59.0721 -37.5124 268° West  Level FlightAware Approximate
02:59AM 59.0673 -37.7475 268° West  Level FlightAware Approximate
03:00AM 59.0621 -37.9825 268° West  Level FlightAware Approximate
03:01AM 59.0565 -38.2174 267° West  Level FlightAware Approximate
03:02AM 59.0505 -38.4522 267° West  Level FlightAware Approximate
03:03AM 59.0440 -38.6870 267° West  Level FlightAware Approximate
03:04AM 59.0371 -38.9216 267° West  Level FlightAware Approximate
03:05AM 59.0298 -39.1562 267° West  Level FlightAware Approximate
03:06AM 59.0221 -39.3907 266° West  Level FlightAware Approximate
03:07AM 59.0139 -39.6250 266° West  Level FlightAware Approximate
03:08AM 59.0054 -39.8592 266° West  Level FlightAware Approximate
03:09AM 58.9941 -40.0929 263° West  Level FlightAware Approximate
03:10AM 58.9790 -40.3257 263° West  Level FlightAware Approximate
03:11AM 58.9635 -40.5583 263° West  Level FlightAware Approximate
03:12AM 58.9476 -40.7907 263° West  Level FlightAware Approximate
03:13AM 58.9312 -41.0229 262° West  Level FlightAware Approximate
03:14AM 58.9144 -41.2549 262° West  Level FlightAware Approximate
03:15AM 58.8974 -41.4867 262° West  Level FlightAware Approximate
03:16AM 58.8809 -41.7185 262° West  Level FlightAware Approximate
03:17AM 58.8640 -41.9501 262° West  Level FlightAware Approximate
03:18AM 58.8467 -42.1815 262° West  Level FlightAware Approximate
03:19AM 58.8290 -42.4126 262° West  Level FlightAware Approximate
03:20AM 58.8108 -42.6435 261° West  Level FlightAware Approximate
03:21AM 58.7923 -42.8742 261° West  Level FlightAware Approximate
03:22AM 58.7733 -43.1046 261° West  Level FlightAware Approximate
03:23AM 58.7539 -43.3347 261° West  Level FlightAware Approximate
03:24AM 58.7341 -43.5646 261° West  Level FlightAware Approximate
03:25AM 58.7139 -43.7942 260° West  Level FlightAware Approximate
03:26AM 58.6933 -44.0236 260° West  Level FlightAware Approximate
03:27AM 58.6723 -44.2527 260° West  Level FlightAware Approximate
03:28AM 58.6509 -44.4815 260° West  Level FlightAware Approximate
03:29AM 58.6291 -44.7100 260° West  Level FlightAware Approximate
03:30AM 58.6068 -44.9382 260° West  Level FlightAware Approximate
03:31AM 58.5842 -45.1661 259° West  Level FlightAware Approximate
03:32AM 58.5612 -45.3938 259° West  Level FlightAware Approximate
03:33AM 58.5377 -45.6211 259° West  Level FlightAware Approximate
03:34AM 58.5139 -45.8482 259° West  Level FlightAware Approximate
03:35AM 58.4897 -46.0749 259° West  Level FlightAware Approximate
03:36AM 58.4650 -46.3013 258° West  Level FlightAware Approximate
03:37AM 58.4400 -46.5274 258° West  Level FlightAware Approximate
03:38AM 58.4145 -46.7531 258° West  Level FlightAware Approximate
03:39AM 58.3887 -46.9786 258° West  Level FlightAware Approximate
03:40AM 58.3625 -47.2037 258° West  Level FlightAware Approximate
03:41AM 58.3359 -47.4284 257° West  Level FlightAware Approximate
03:42AM 58.3089 -47.6529 257° West  Level FlightAware Approximate
03:43AM 58.2815 -47.8769 257° West  Level FlightAware Approximate
03:44AM 58.2537 -48.1007 257° West  Level FlightAware Approximate
03:45AM 58.2255 -48.3241 257° West  Level FlightAware Approximate
03:46AM 58.1969 -48.5471 256° West  Level FlightAware Approximate
03:47AM 58.1679 -48.7697 256° West  Level FlightAware Approximate
03:48AM 58.1386 -48.9920 256° West  Level FlightAware Approximate
03:49AM 58.1088 -49.2140 256° West  Level FlightAware Approximate
03:50AM 58.0787 -49.4355 256° West  Level FlightAware Approximate
03:51AM 58.0482 -49.6567 255° West  Level FlightAware Approximate
03:52AM 58.0173 -49.8775 255° West  Level FlightAware Approximate
03:53AM 57.9837 -50.0966 252° West  Level FlightAware Approximate
03:54AM 57.9467 -50.3136 252° West  Level FlightAware Approximate
03:55AM 57.9094 -50.5302 252° West  Level FlightAware Approximate
03:56AM 57.8717 -50.7464 252° West  Level FlightAware Approximate
03:57AM 57.8337 -50.9620 252° West  Level FlightAware Approximate
03:58AM 57.7952 -51.1773 252° West  Level FlightAware Approximate
03:59AM 57.7564 -51.3920 251° West  Level FlightAware Approximate
04:00AM 57.7173 -51.6063 251° West  Level FlightAware Approximate
04:01AM 57.6778 -51.8202 251° West  Level FlightAware Approximate
04:02AM 57.6379 -52.0335 251° West  Level FlightAware Approximate
04:03AM 57.5977 -52.2464 251° West  Level FlightAware Approximate
04:04AM 57.5571 -52.4589 250° West  Level FlightAware Approximate
04:05AM 57.5162 -52.6708 250° West  Level FlightAware Approximate
04:06AM 57.4748 -52.8823 250° West  Level FlightAware Approximate
04:07AM 57.4332 -53.0933 250° West  Level FlightAware Approximate
04:08AM 57.3912 -53.3038 250° West  Level FlightAware Approximate
04:09AM 57.3489 -53.5138 250° West  Level FlightAware Approximate
04:10AM 57.3061 -53.7234 249° West  Level FlightAware Approximate
04:10AM 57.0333 -54.9667 243° Southwest 210 242 40,000  Level Gander Center
04:11AM 57.2631 -53.9324 249° West  Level FlightAware Approximate
04:11AM 57.0000 -55.1833 254° West 440 506 40,000  Level Gander Center
04:12AM 57.2197 -54.1410 249° West  Level FlightAware Approximate
04:12AM 56.9333 -55.4000 241° Southwest 460 529 40,000  Level Gander Center
04:13AM 57.1760 -54.3490 249° West  Level FlightAware Approximate
04:13AM 56.8833 -55.6000 245° Southwest 440 506 40,000  Level Gander Center
04:14AM 57.1218 -54.5473 243° Southwest  Level Estimated
04:14AM 56.8167 -55.7833 236° Southwest 440 506 40,000  Level Gander Center
04:15AM 57.0673 -54.7450 243° Southwest  Level Estimated
04:15AM 56.7500 -55.9833 239° Southwest 430 495 40,000  Level Gander Center
04:16AM 56.7000 -56.2000 247° West 440 506 40,000  Level Gander Center
04:17AM 56.6500 -56.4167 247° West 460 529 40,000  Level Gander Center
04:18AM 56.5833 -56.6167 239° Southwest 450 518 40,000  Level Gander Center
04:19AM 56.5167 -56.8000 237° Southwest 440 506 40,000  Level Gander Center
04:20AM 56.4500 -57.0167 241° Southwest 440 506 40,000  Level Gander Center
04:21AM 56.4000 -57.2000 244° Southwest 450 518 40,000  Level Gander Center
04:22AM 56.3500 -57.4000 246° West 450 518 40,000  Level Gander Center
04:23AM 56.2667 -57.5833 231° Southwest 450 518 40,000  Level Gander Center
04:24AM 56.2000 -57.7667 237° Southwest 450 518 40,000  Level Gander Center
04:25AM 56.1500 -57.9833 248° West 460 529 40,000  Level Gander Center
04:26AM 56.0833 -58.1667 237° Southwest 450 518 40,000  Level Gander Center
04:27AM 56.0167 -58.3833 241° Southwest 450 518 40,000  Level Gander Center
04:28AM 55.9500 -58.5667 237° Southwest 450 518 40,000  Level Gander Center
04:29AM 55.9000 -58.7500 244° Southwest 450 518 40,000  Level Gander Center
04:30AM 55.8333 -58.9333 237° Southwest 450 518 40,000  Level Gander Center
04:31AM 55.7667 -59.1500 241° Southwest 450 518 40,000  Level Gander Center
04:32AM 55.7000 -59.3333 237° Southwest 450 518 40,000  Level Gander Center
04:33AM 55.6333 -59.5000 235° Southwest 450 518 40,000  Level Gander Center
04:34AM 55.5667 -59.7167 242° Southwest 450 518 40,000  Level Gander Center
04:35AM 55.5167 -59.9000 244° Southwest 450 518 40,000  Level Gander Center
04:36AM 55.4333 -60.0833 231° Southwest 450 518 40,000  Level Gander Center
04:37AM 55.3667 -60.2833 240° Southwest 450 518 40,000  Level Gander Center
04:38AM 55.3000 -60.4667 237° Southwest 450 518 40,000  Level Gander Center
04:39AM 55.2333 -60.6333 235° Southwest 450 518 40,000  Level Gander Center
04:40AM 55.1667 -60.8167 238° Southwest 450 518 40,000  Level Gander Center
04:41AM 55.1000 -61.0167 240° Southwest 450 518 40,000  Level Gander Center
04:42AM 55.0333 -61.2000 238° Southwest 450 518 40,000  Level Gander Center
04:43AM 54.9667 -61.4000 240° Southwest 450 518 40,000  Level Gander Center
04:44AM 54.9000 -61.5667 235° Southwest 450 518 40,000  Level Gander Center
04:45AM 54.8333 -61.7500 238° Southwest 450 518 40,000  Level Gander Center
04:46AM 54.7667 -61.9167 235° Southwest 460 529 40,000  Level Gander Center
04:47AM 54.6833 -62.1167 234° Southwest 460 529 40,000  Level Gander Center
04:48AM 54.6167 -62.3000 238° Southwest 460 529 40,000  Level Gander Center
04:49AM 54.5500 -62.4667 235° Southwest 450 518 40,000  Level Gander Center
04:50AM 54.4667 -62.6667 234° Southwest 450 518 40,000  Level Gander Center
04:51AM 54.4000 -62.8333 236° Southwest 460 529 40,000  Level Gander Center
04:52AM 54.3333 -63.0333 240° Southwest 450 518 40,000  Level Gander Center
04:53AM 54.2667 -63.2000 236° Southwest 450 518 40,000  Level Gander Center
04:54AM 54.2000 -63.3667 236° Southwest 450 518 40,000  Level Gander Center
04:55AM 54.1333 -63.5333 236° Southwest 450 518 40,000  Level Gander Center
04:56AM 54.0500 -63.7333 235° Southwest 450 518 40,000  Level Gander Center
04:57AM 53.9833 -63.9000 236° Southwest 450 518 40,000  Level Gander Center
04:58AM 53.9167 -64.0667 236° Southwest 450 518 40,000  Level Gander Center
04:59AM 53.8500 -64.2333 236° Southwest 450 518 40,000  Level Gander Center
05:00AM 53.7667 -64.4000 230° Southwest 440 506 40,000  Level Gander Center
05:01AM 53.7000 -64.5833 238° Southwest 440 506 40,000  Level Gander Center
05:02AM 53.6333 -64.7500 236° Southwest 450 518 40,000  Level Gander Center
05:03AM 53.5667 -64.9167 236° Southwest 440 506 40,000  Level Gander Center
05:04AM 53.4833 -65.0833 230° Southwest 440 506 40,000  Level Gander Center
05:05AM 53.4167 -65.2667 239° Southwest 440 506 40,000  Level Gander Center
05:06AM 53.3500 -65.4333 236° Southwest 440 506 40,000  Level Gander Center
05:07AM 53.2667 -65.5833 227° Southwest 440 506 40,000  Level Gander Center
05:08AM 53.2000 -65.7500 236° Southwest 440 506 40,000  Level Gander Center
05:09AM 53.1167 -65.9167 230° Southwest 440 506 40,000  Level Gander Center
05:10AM 53.0500 -66.0667 234° Southwest 430 495 40,000  Level Gander Center
05:11AM 52.9833 -66.2333 236° Southwest 430 495 40,000  Level Gander Center
05:12AM 52.9000 -66.3833 227° Southwest 440 506 40,000  Level Gander Center
05:13AM 52.8333 -66.5500 237° Southwest 430 495 40,000  Level Gander Center
05:14AM 52.7500 -66.7333 233° Southwest 440 506 40,000  Level Gander Center
05:15AM 52.6833 -66.8500 227° Southwest 430 495 40,000  Level Gander Center
05:16AM 52.6000 -67.0333 233° Southwest 430 495 40,000  Level Gander Center
05:17AM 52.5333 -67.2000 237° Southwest 440 506 40,000  Level Gander Center
05:18AM 52.4500 -67.3500 228° Southwest 430 495 40,000  Level Gander Center
05:19AM 52.3833 -67.5000 234° Southwest 430 495 40,000  Level Gander Center
05:20AM 52.3000 -67.6667 231° Southwest 430 495 40,000  Level Gander Center
05:21AM 52.2500 -67.8167 241° Southwest 430 495 40,000  Level Gander Center
05:22AM 52.1667 -67.9667 228° Southwest 430 495 40,000  Level Gander Center
05:23AM 52.0833 -68.1000 225° Southwest 430 495 40,000  Level Montreal Center
05:24AM 52.0167 -68.2333 231° Southwest 430 495 40,000  Level Montreal Center
05:25AM 51.9500 -68.3833 234° Southwest 420 483 40,000  Level Montreal Center
05:26AM 51.8667 -68.5333 228° Southwest 430 495 40,000  Level Montreal Center
05:27AM 51.7833 -68.6833 228° Southwest 440 506 40,000  Level Montreal Center
05:28AM 51.7167 -68.8333 234° Southwest 430 495 40,000  Level Montreal Center
05:29AM 51.6333 -68.9833 228° Southwest 420 483 40,000  Level Montreal Center
05:30AM 51.5667 -69.1333 234° Southwest 420 483 40,000  Level Montreal Center
05:31AM 51.4833 -69.2833 228° Southwest 420 483 40,000  Level Montreal Center
05:32AM 51.4167 -69.4333 235° Southwest 420 483 40,000  Level Montreal Center
05:33AM 51.3333 -69.5833 228° Southwest 430 495 40,000  Level Montreal Center
05:34AM 51.2667 -69.7167 231° Southwest 420 483 40,000  Level Montreal Center
05:35AM 51.2000 -69.8833 237° Southwest 420 483 40,000  Level Montreal Center
05:36AM 51.1167 -70.0167 225° Southwest 420 483 40,000  Level Montreal Center
05:37AM 51.0167 -70.1500 220° Southwest 430 495 40,000  Level Montreal Center
05:38AM 50.9500 -70.3000 235° Southwest 430 495 40,000  Level Montreal Center
05:39AM 50.8667 -70.4167 221° Southwest 430 495 40,000  Level Montreal Center
05:40AM 50.7667 -70.5667 224° Southwest 430 495 40,000  Level Montreal Center
05:41AM 50.7000 -70.7000 232° Southwest 430 495 40,000  Level Montreal Center
05:42AM 50.6000 -70.8500 224° Southwest 430 495 40,000  Level Montreal Center
05:43AM 50.5167 -70.9667 222° Southwest 420 483 40,000  Level Montreal Center
05:44AM 50.4333 -71.1000 226° Southwest 420 483 40,000  Level Montreal Center
05:49AM 49.9520 -71.8630 226° Southwest 432 497 40,000  Level FlightAware
05:50AM 49.9070 -71.9310 224° Southwest 432 497 40,000  Level FlightAware
05:51AM 49.8170 -72.0660 224° Southwest 430 495 40,000  Level FlightAware
05:52AM 49.7530 -72.1610 224° Southwest 429 494 40,000  Level FlightAware
05:52AM 49.6920 -72.2520 224° Southwest 429 494 40,000  Level FlightAware
05:53AM 49.6330 -72.3390 224° Southwest 426 490 40,000  Level FlightAware
05:54AM 49.5780 -72.4210 224° Southwest 425 489 40,000  Level FlightAware
05:54AM 49.5280 -72.4940 223° Southwest 425 489 40,000  Level FlightAware
05:55AM 49.4710 -72.5780 224° Southwest 425 489 40,000  Level FlightAware
05:56AM 49.3820 -72.7080 224° Southwest 426 490 40,000  Level FlightAware
05:57AM 49.3130 -72.8070 223° Southwest 426 490 40,000  Level FlightAware
05:58AM 49.2210 -72.9400 223° Southwest 427 491 40,000  Level FlightAware
05:59AM 49.1760 -73.0030 222° Southwest 427 491 40,000  Level FlightAware
05:59AM 49.2280 -72.9290 43° Northeast 427 491 40,000  Level FlightAware
06:00AM 49.1830 -72.9940 223° Southwest 427 491 40,000  Level FlightAware
06:01AM 49.1260 -73.0750 223° Southwest 427 491 40,000  Level FlightAware
06:01AM 49.0800 -73.1410 223° Southwest 427 491 40,000  Level FlightAware
06:02AM 48.8440 -73.4790 223° Southwest 419 482 40,000  Level FlightAware
06:03AM 48.7700 -73.5830 223° Southwest 420 483 40,000  Level FlightAware
06:04AM 48.7210 -73.6520 223° Southwest 423 487 40,000  Level FlightAware
06:05AM 48.6480 -73.7530 222° Southwest 424 488 40,000  Level FlightAware
06:05AM 48.5860 -73.8390 223° Southwest 426 490 40,000  Level FlightAware
06:06AM 48.5120 -73.9420 223° Southwest 425 489 40,000  Level FlightAware
06:07AM 48.4430 -74.0370 222° Southwest 425 489 40,000  Level FlightAware
06:08AM 48.3910 -74.1100 223° Southwest 426 490 40,000  Level FlightAware
06:08AM 48.3460 -74.1730 223° Southwest 426 490 40,000  Level FlightAware
06:09AM 48.2870 -74.2560 223° Southwest 426 490 40,000  Level FlightAware
06:10AM 48.1620 -74.4240 222° Southwest 422 486 40,000  Level FlightAware
06:11AM 48.1130 -74.4920 223° Southwest 422 486 40,000  Level FlightAware
06:12AM 48.0260 -74.6060 221° Southwest 431 496 40,000  Level FlightAware
06:12AM 47.9800 -74.6670 222° Southwest 431 496 40,000  Level FlightAware
06:13AM 47.9200 -74.7490 223° Southwest 431 496 40,000  Level FlightAware
06:14AM 47.8430 -74.8520 222° Southwest 421 484 40,000  Level FlightAware
06:14AM 47.7780 -74.9380 222° Southwest 421 484 40,000  Level FlightAware
06:15AM 47.7080 -75.0310 222° Southwest 420 483 40,000  Level FlightAware
06:16AM 47.6540 -75.1020 222° Southwest 419 482 40,000  Level FlightAware
06:17AM 47.5910 -75.1850 222° Southwest 418 481 40,000  Level FlightAware
06:17AM 47.5370 -75.2560 222° Southwest 419 482 40,000  Level FlightAware
06:18AM 47.4800 -75.3310 222° Southwest 426 490 40,000  Level FlightAware
06:19AM 47.4220 -75.4080 222° Southwest 426 490 40,000  Level FlightAware
06:19AM 47.3610 -75.4860 221° Southwest 427 491 40,000  Level FlightAware
06:22AM 47.1070 -75.8120 221° Southwest 427 491 40,000  Level FlightAware
06:23AM 47.0030 -75.9480 222° Southwest 427 491 40,000  Level FlightAware
06:24AM 46.9590 -76.0040 221° Southwest 428 493 40,000  Level FlightAware
06:25AM 46.8540 -76.1370 221° Southwest 426 490 40,000  Level FlightAware
06:26AM 46.7670 -76.2470 221° Southwest 426 490 40,000  Level FlightAware
06:27AM 46.7060 -76.3240 221° Southwest 426 490 40,000  Level FlightAware
06:27AM 46.6460 -76.4000 221° Southwest 426 490 40,000  Level FlightAware
06:28AM 46.5960 -76.4620 220° Southwest 426 490 40,000  Level FlightAware
06:29AM 46.5210 -76.5560 221° Southwest 431 496 40,000  Level FlightAware
06:30AM 46.4210 -76.6800 221° Southwest 434 499 40,000  Level FlightAware
06:30AM 46.3550 -76.7620 221° Southwest 431 496 40,000  Level FlightAware
06:31AM 46.2840 -76.8490 220° Southwest 431 496 40,000  Level FlightAware
06:32AM 46.2230 -76.9240 220° Southwest 429 494 40,000  Level FlightAware
06:33AM 46.1600 -77.0020 221° Southwest 429 494 40,000  Level FlightAware
06:33AM 46.0930 -77.0830 220° Southwest 428 493 40,000  Level FlightAware
06:34AM 46.0340 -77.1560 221° Southwest 429 494 40,000  Level FlightAware
06:35AM 45.9650 -77.2400 220° Southwest 429 494 40,000  Level FlightAware
06:35AM 45.9060 -77.3100 220° Southwest 430 495 40,000  Level FlightAware
06:36AM 45.8510 -77.3770 220° Southwest 431 496 40,000  Level FlightAware
06:37AM 45.7820 -77.4600 220° Southwest 431 496 40,000  Level FlightAware
06:37AM 45.7200 -77.5340 220° Southwest 431 496 40,000  Level FlightAware
06:38AM 45.6670 -77.5980 220° Southwest 431 496 40,000  Level FlightAware
06:39AM 45.6110 -77.6620 219° Southwest 433 498 40,000  Level FlightAware
06:39AM 45.5320 -77.7510 218° Southwest 435 501 40,000  Level FlightAware
06:40AM 45.4700 -77.8210 218° Southwest 437 503 40,000  Level FlightAware
06:41AM 45.4090 -77.8890 218° Southwest 440 506 40,000  Level FlightAware
06:41AM 45.3360 -77.9710 218° Southwest 443 510 40,000  Level FlightAware
06:42AM 45.2740 -78.0410 218° Southwest 446 513 40,000  Level FlightAware
06:43AM 45.1880 -78.1370 218° Southwest 447 514 40,000  Level FlightAware
06:44AM 45.1240 -78.2080 218° Southwest 447 514 40,000  Level FlightAware
06:44AM 45.0510 -78.2890 218° Southwest 445 512 40,000  Level FlightAware
06:45AM 44.9940 -78.3520 218° Southwest 445 512 40,000  Level FlightAware
06:46AM 44.9280 -78.4240 218° Southwest 445 512 40,000  Level FlightAware
06:46AM 44.8580 -78.5010 218° Southwest 446 513 40,000  Level FlightAware
06:47AM 44.7910 -78.5750 218° Southwest 446 513 40,000  Level FlightAware
06:48AM 44.7290 -78.6420 218° Southwest 447 514 40,000 -480 Level FlightAware
06:48AM 44.6510 -78.7280 218° Southwest 449 517 39,400 -1,020 Descending FlightAware
06:49AM 44.5850 -78.7990 217° Southwest 449 517 38,600 -1,260 Descending FlightAware
06:50AM 44.4810 -78.9110 218° Southwest 432 497 37,200 -1,320 Descending FlightAware
06:51AM 44.4160 -78.9810 218° Southwest 429 494 36,300 -1,380 Descending FlightAware
06:52AM 44.3450 -79.0570 217° Southwest 427 491 35,300 -1,320 Descending FlightAware
06:52AM 44.2930 -79.1140 218° Southwest 425 489 34,600 -1,080 Descending FlightAware
06:53AM 44.2290 -79.1820 217° Southwest 420 483 34,000 -480 Descending FlightAware
06:54AM 44.1700 -79.2510 220° Southwest 419 482 34,000  Level FlightAware
06:54AM 44.1030 -79.3280 220° Southwest 421 484 34,000  Level FlightAware
06:55AM 44.0410 -79.3990 219° Southwest 421 484 34,000  Level FlightAware
06:56AM 43.9820 -79.4670 220° Southwest 421 484 34,000  Level FlightAware
06:56AM 43.9180 -79.5410 220° Southwest 420 483 34,000  Level FlightAware
06:57AM 43.8630 -79.6030 219° Southwest 421 484 34,000  Level FlightAware
06:58AM 43.7940 -79.6820 220° Southwest 420 483 34,000  Level FlightAware
06:58AM 43.7340 -79.7490 219° Southwest 419 482 34,000 -300 Level FlightAware
06:59AM 43.6670 -79.8250 219° Southwest 417 480 33,600 -780 Descending FlightAware
07:00AM 43.6010 -79.9000 219° Southwest 422 486 32,900 -960 Descending FlightAware
07:01AM 43.5140 -79.9970 219° Southwest 429 494 32,000 -960 Descending FlightAware
07:01AM 43.4570 -80.0610 219° Southwest 432 497 31,400 -1,020 Descending FlightAware
07:02AM 43.3850 -80.1420 219° Southwest 435 501 30,600 -1,080 Descending FlightAware
07:03AM 43.3200 -80.2140 219° Southwest 432 497 29,900 -1,020 Descending FlightAware
07:04AM 43.2520 -80.2900 219° Southwest 423 487 29,200 -1,320 Descending FlightAware
07:04AM 43.1900 -80.3580 219° Southwest 425 489 28,100 -1,740 Descending FlightAware
07:05AM 43.1220 -80.4340 219° Southwest 413 475 26,800 -1,740 Descending FlightAware
07:06AM 43.0630 -80.4990 219° Southwest 402 463 25,700 -1,560 Descending FlightAware
07:06AM 43.0010 -80.5670 219° Southwest 394 453 24,600 -1,380 Descending FlightAware
07:07AM 42.9440 -80.6290 219° Southwest 383 441 23,800 -1,080 Descending FlightAware
07:08AM 42.8920 -80.6940 222° Southwest 375 432 23,200 -780 Descending FlightAware
07:08AM 42.8830 -80.7250 248° West 372 428 23,100 -240 Descending FlightAware
07:09AM 42.8620 -80.8340 255° West 413 475 23,000 -120 Descending FlightAware
07:09AM 42.8420 -80.9350 255° West 414 476 23,000  Level FlightAware
07:10AM 42.8230 -81.0290 255° West 413 475 23,000  Level FlightAware
07:11AM 42.7990 -81.1520 255° West 414 476 23,000 -300 Level FlightAware
07:12AM 42.7760 -81.2660 255° West 414 476 22,600 -780 Descending FlightAware
07:12AM 42.7520 -81.3820 254° West 406 467 21,800 -1,020 Descending FlightAware
07:13AM 42.7360 -81.4630 255° West 400 460 21,300 -1,020 Descending FlightAware
07:14AM 42.7130 -81.5750 254° West 398 458 20,500 -1,080 Descending FlightAware
07:15AM 42.6920 -81.6760 254° West 392 451 19,800 -1,020 Descending FlightAware
07:15AM 42.6740 -81.7610 254° West 383 441 19,200 -1,020 Descending FlightAware
07:16AM 42.6510 -81.8720 254° West 383 441 18,400 -1,020 Descending FlightAware
07:17AM 42.6340 -81.9560 255° West 379 436 17,800 -1,020 Descending FlightAware
07:17AM 42.6120 -82.0610 254° West 375 432 17,000 -1,080 Descending FlightAware
07:18AM 42.5960 -82.1370 254° West 374 430 16,400 -1,380 Descending FlightAware
07:19AM 42.5720 -82.2490 254° West 362 417 15,100 -1,320 Descending FlightAware
07:19AM 42.5540 -82.3340 254° West 328 377 14,500 -420 Descending FlightAware
07:20AM 42.5310 -82.4430 254° West 324 373 14,400 -780 Descending FlightAware
07:22AM 42.4980 -82.5990 254° West 294 338 12,300 -1,620 Descending FlightAware
07:24AM 42.4290 -82.7840 243° Southwest 275 316 9,000 -1,980 Descending FlightAware
07:24AM 42.4220 -82.8360 260° West 275 316 8,200 -2,040 Descending FlightAware
07:25AM 42.4160 -82.8930 262° West 272 313 7,200 -2,400 Descending FlightAware
07:25AM 42.4110 -82.9360 261° West 269 310 6,200 -1,620 Descending FlightAware
07:26AM 42.4060 -82.9800 261° West 263 303 5,800 -480 Descending FlightAware
07:26AM 42.4010 -83.0230 261° West 239 275 5,800  Level FlightAware
07:27AM 42.3960 -83.0680 261° West 228 262 5,800  Level FlightAware
07:27AM 42.3940 -83.0930 264° West 227 261 5,800 -420 Level FlightAware
07:27AM 42.3900 -83.1310 262° West 228 262 5,500 -1,020 Descending FlightAware
07:28AM 42.3840 -83.1730 259° West 227 261 4,900 -1,440 Descending FlightAware
07:28AM 42.3760 -83.1920 240° Southwest 228 262 4,400 -2,040 Descending FlightAware
07:29AM 42.3590 -83.2210 232° Southwest 224 258 3,500 -1,860 Descending FlightAware
07:29AM 42.3480 -83.2380 229° Southwest 217 250 3,100 -1,320 Descending FlightAware
07:29AM 42.3380 -83.2470 214° Southwest 217 250 2,900 -1,080 Descending FlightAware
07:29AM 42.3240 -83.2570 208° Southwest 216 249 2,600 -1,020 Descending FlightAware
07:30AM 42.3020 -83.2730 208° Southwest 197 227 2,200 -900 Descending FlightAware
07:30AM 42.2810 -83.2890 209° Southwest 174 200 1,800 -1,020 Descending FlightAware
07:30AM 42.2710 -83.2960 207° Southwest 165 190 1,500 -840 Descending FlightAware
07:31AM 42.2520 -83.3100 209° Southwest 144 166 1,200 -780 Descending FlightAware
07:31AM 42.2370 -83.3210 209° Southwest 133 153 800 -840 Descending FlightAware
07:32AM 42.2310 -83.3260 212° Southwest 133 153 700 -720 Descending FlightAware
07:32AM 42.2180 -83.3350 207° Southwest 132 152 400 -720 Descending FlightAware
07:32AM 42.2070 -83.3440 211° Southwest 72 83 -1,020 Descending FlightAware
07:33AM 42.2020 -83.3490 217° Southwest 33 38  Level FlightAware
07:35AM 42.2100 -83.3440 25° Northeast 30 35  Level FlightAware
07:36AM 42.2130 -83.3420 26° Northeast 30 35  Level FlightAware